sensor_id;sensor_type;location;lat;lon;timestamp;temperature;humidity
3330;DHT22;1677;49.576;10.990;2023-06-19T00:01:14;20.30;92.20
3330;DHT22;1677;49.576;10.990;2023-06-19T00:03:40;20.30;91.30
3330;DHT22;1677;49.576;10.990;2023-06-19T00:06:05;20.40;90.10
3330;DHT22;1677;49.576;10.990;2023-06-19T00:08:31;20.40;90.30
3330;DHT22;1677;49.576;10.990;2023-06-19T00:10:56;20.40;90.30
3330;DHT22;1677;49.576;10.990;2023-06-19T00:13:22;20.30;90.50
3330;DHT22;1677;49.576;10.990;2023-06-19T00:15:47;20.40;90.80
3330;DHT22;1677;49.576;10.990;2023-06-19T00:18:13;20.40;90.40
3330;DHT22;1677;49.576;10.990;2023-06-19T00:20:38;20.40;90.70
3330;DHT22;1677;49.576;10.990;2023-06-19T00:23:05;20.50;91.20
3330;DHT22;1677;49.576;10.990;2023-06-19T00:25:31;20.50;90.50
3330;DHT22;1677;49.576;10.990;2023-06-19T00:27:57;20.50;89.40
3330;DHT22;1677;49.576;10.990;2023-06-19T00:30:22;20.50;88.30
3330;DHT22;1677;49.576;10.990;2023-06-19T00:32:48;20.50;88.50
3330;DHT22;1677;49.576;10.990;2023-06-19T00:35:15;20.40;88.40
3330;DHT22;1677;49.576;10.990;2023-06-19T00:37:41;20.40;89.10
3330;DHT22;1677;49.576;10.990;2023-06-19T00:40:12;20.40;88.40
3330;DHT22;1677;49.576;10.990;2023-06-19T00:42:39;20.50;89.10
3330;DHT22;1677;49.576;10.990;2023-06-19T00:45:05;20.40;90.90
3330;DHT22;1677;49.576;10.990;2023-06-19T00:47:33;20.50;89.70
3330;DHT22;1677;49.576;10.990;2023-06-19T00:49:59;20.50;90.70
3330;DHT22;1677;49.576;10.990;2023-06-19T00:52:24;20.40;91.20
3330;DHT22;1677;49.576;10.990;2023-06-19T00:54:50;20.50;91.40
3330;DHT22;1677;49.576;10.990;2023-06-19T00:57:15;20.50;91.10
3330;DHT22;1677;49.576;10.990;2023-06-19T00:59:41;20.50;91.30
3330;DHT22;1677;49.576;10.990;2023-06-19T01:02:07;20.40;92.00
3330;DHT22;1677;49.576;10.990;2023-06-19T01:04:32;20.50;91.30
3330;DHT22;1677;49.576;10.990;2023-06-19T01:07:05;20.60;91.40
3330;DHT22;1677;49.576;10.990;2023-06-19T01:09:38;20.50;90.90
3330;DHT22;1677;49.576;10.990;2023-06-19T01:12:08;20.40;91.40
3330;DHT22;1677;49.576;10.990;2023-06-19T01:14:37;20.50;91.60
3330;DHT22;1677;49.576;10.990;2023-06-19T01:17:03;20.40;91.80
3330;DHT22;1677;49.576;10.990;2023-06-19T01:19:28;20.30;91.70
3330;DHT22;1677;49.576;10.990;2023-06-19T01:21:54;20.30;91.20
3330;DHT22;1677;49.576;10.990;2023-06-19T01:24:19;20.30;90.60
3330;DHT22;1677;49.576;10.990;2023-06-19T01:26:45;20.30;90.50
3330;DHT22;1677;49.576;10.990;2023-06-19T01:29:11;20.30;89.70
3330;DHT22;1677;49.576;10.990;2023-06-19T01:31:38;20.20;89.30
3330;DHT22;1677;49.576;10.990;2023-06-19T01:34:06;20.10;89.40
3330;DHT22;1677;49.576;10.990;2023-06-19T01:36:33;20.00;89.70
3330;DHT22;1677;49.576;10.990;2023-06-19T01:38:59;19.90;91.10
3330;DHT22;1677;49.576;10.990;2023-06-19T01:41:25;19.90;91.50
3330;DHT22;1677;49.576;10.990;2023-06-19T01:43:50;19.70;91.40
3330;DHT22;1677;49.576;10.990;2023-06-19T01:46:16;19.70;90.90
3330;DHT22;1677;49.576;10.990;2023-06-19T01:48:41;19.60;92.00
3330;DHT22;1677;49.576;10.990;2023-06-19T01:51:07;19.50;92.00
3330;DHT22;1677;49.576;10.990;2023-06-19T01:53:33;19.50;91.90
3330;DHT22;1677;49.576;10.990;2023-06-19T01:55:59;19.40;92.60
3330;DHT22;1677;49.576;10.990;2023-06-19T01:58:25;19.30;92.30
3330;DHT22;1677;49.576;10.990;2023-06-19T02:00:50;19.30;92.10
3330;DHT22;1677;49.576;10.990;2023-06-19T02:03:16;19.20;92.60
3330;DHT22;1677;49.576;10.990;2023-06-19T02:05:42;19.20;94.00
3330;DHT22;1677;49.576;10.990;2023-06-19T02:08:07;19.20;92.00
3330;DHT22;1677;49.576;10.990;2023-06-19T02:10:33;19.30;92.50
3330;DHT22;1677;49.576;10.990;2023-06-19T02:12:58;19.30;92.10
3330;DHT22;1677;49.576;10.990;2023-06-19T02:15:24;19.20;92.30
3330;DHT22;1677;49.576;10.990;2023-06-19T02:17:49;19.30;91.60
3330;DHT22;1677;49.576;10.990;2023-06-19T02:20:23;19.30;90.80
3330;DHT22;1677;49.576;10.990;2023-06-19T02:22:52;19.40;90.60
3330;DHT22;1677;49.576;10.990;2023-06-19T02:25:17;19.40;91.90
3330;DHT22;1677;49.576;10.990;2023-06-19T02:27:43;19.30;93.40
3330;DHT22;1677;49.576;10.990;2023-06-19T02:30:09;19.20;92.80
3330;DHT22;1677;49.576;10.990;2023-06-19T02:32:34;19.20;92.60
3330;DHT22;1677;49.576;10.990;2023-06-19T02:35:00;19.00;93.00
3330;DHT22;1677;49.576;10.990;2023-06-19T02:37:25;18.90;92.30
3330;DHT22;1677;49.576;10.990;2023-06-19T02:39:51;18.90;92.20
3330;DHT22;1677;49.576;10.990;2023-06-19T02:42:16;18.80;92.60
3330;DHT22;1677;49.576;10.990;2023-06-19T02:44:42;18.60;93.00
3330;DHT22;1677;49.576;10.990;2023-06-19T02:47:10;18.50;92.80
3330;DHT22;1677;49.576;10.990;2023-06-19T02:49:36;18.50;92.90
3330;DHT22;1677;49.576;10.990;2023-06-19T02:52:01;18.60;92.70
3330;DHT22;1677;49.576;10.990;2023-06-19T02:54:27;18.70;92.40
3330;DHT22;1677;49.576;10.990;2023-06-19T02:56:52;18.80;92.60
3330;DHT22;1677;49.576;10.990;2023-06-19T02:59:18;18.80;95.10
3330;DHT22;1677;49.576;10.990;2023-06-19T03:01:43;18.80;95.10
3330;DHT22;1677;49.576;10.990;2023-06-19T03:04:09;18.70;94.40
3330;DHT22;1677;49.576;10.990;2023-06-19T03:06:35;18.80;93.00
3330;DHT22;1677;49.576;10.990;2023-06-19T03:09:08;18.90;92.30
3330;DHT22;1677;49.576;10.990;2023-06-19T03:11:40;18.90;91.40
3330;DHT22;1677;49.576;10.990;2023-06-19T03:14:05;18.90;91.10
3330;DHT22;1677;49.576;10.990;2023-06-19T03:16:33;19.00;90.50
3330;DHT22;1677;49.576;10.990;2023-06-19T03:18:58;19.00;90.40
3330;DHT22;1677;49.576;10.990;2023-06-19T03:21:24;19.00;90.10
3330;DHT22;1677;49.576;10.990;2023-06-19T03:23:49;19.00;90.20
3330;DHT22;1677;49.576;10.990;2023-06-19T03:26:15;19.00;90.20
3330;DHT22;1677;49.576;10.990;2023-06-19T03:28:40;19.00;90.40
3330;DHT22;1677;49.576;10.990;2023-06-19T03:31:06;19.00;91.30
3330;DHT22;1677;49.576;10.990;2023-06-19T03:33:31;18.90;93.20
3330;DHT22;1677;49.576;10.990;2023-06-19T03:35:57;19.00;93.10
3330;DHT22;1677;49.576;10.990;2023-06-19T03:38:22;19.00;93.70
3330;DHT22;1677;49.576;10.990;2023-06-19T03:40:48;19.10;91.20
3330;DHT22;1677;49.576;10.990;2023-06-19T03:43:14;19.10;92.60
3330;DHT22;1677;49.576;10.990;2023-06-19T03:45:39;19.20;92.00
3330;DHT22;1677;49.576;10.990;2023-06-19T03:48:04;19.30;93.30
3330;DHT22;1677;49.576;10.990;2023-06-19T03:50:30;19.30;94.40
3330;DHT22;1677;49.576;10.990;2023-06-19T03:52:55;19.40;93.90
3330;DHT22;1677;49.576;10.990;2023-06-19T03:55:21;19.50;94.80
3330;DHT22;1677;49.576;10.990;2023-06-19T03:57:47;19.50;95.60
3330;DHT22;1677;49.576;10.990;2023-06-19T04:00:13;19.50;94.90
3330;DHT22;1677;49.576;10.990;2023-06-19T04:02:39;19.60;94.40
3330;DHT22;1677;49.576;10.990;2023-06-19T04:05:05;19.70;91.90
3330;DHT22;1677;49.576;10.990;2023-06-19T04:07:30;19.70;90.60
3330;DHT22;1677;49.576;10.990;2023-06-19T04:09:57;19.90;90.20
3330;DHT22;1677;49.576;10.990;2023-06-19T04:12:22;19.90;89.80
3330;DHT22;1677;49.576;10.990;2023-06-19T04:14:48;19.90;89.90
3330;DHT22;1677;49.576;10.990;2023-06-19T04:17:13;20.00;89.70
3330;DHT22;1677;49.576;10.990;2023-06-19T04:19:39;20.00;89.10
3330;DHT22;1677;49.576;10.990;2023-06-19T04:22:05;20.00;89.40
3330;DHT22;1677;49.576;10.990;2023-06-19T04:24:30;20.10;89.20
3330;DHT22;1677;49.576;10.990;2023-06-19T04:26:56;20.10;88.90
3330;DHT22;1677;49.576;10.990;2023-06-19T04:29:21;20.10;89.30
3330;DHT22;1677;49.576;10.990;2023-06-19T04:31:47;20.00;88.50
3330;DHT22;1677;49.576;10.990;2023-06-19T04:34:13;20.10;89.20
3330;DHT22;1677;49.576;10.990;2023-06-19T04:36:40;20.20;88.20
3330;DHT22;1677;49.576;10.990;2023-06-19T04:39:05;20.20;88.20
3330;DHT22;1677;49.576;10.990;2023-06-19T04:41:31;20.30;89.80
3330;DHT22;1677;49.576;10.990;2023-06-19T04:43:57;20.50;88.50
3330;DHT22;1677;49.576;10.990;2023-06-19T04:46:22;20.50;89.70
3330;DHT22;1677;49.576;10.990;2023-06-19T04:48:48;20.50;91.90
3330;DHT22;1677;49.576;10.990;2023-06-19T04:51:19;20.70;91.00
3330;DHT22;1677;49.576;10.990;2023-06-19T04:53:47;20.80;90.30
3330;DHT22;1677;49.576;10.990;2023-06-19T04:56:16;20.80;91.00
3330;DHT22;1677;49.576;10.990;2023-06-19T04:58:41;21.00;90.10
3330;DHT22;1677;49.576;10.990;2023-06-19T05:01:12;20.90;90.10
3330;DHT22;1677;49.576;10.990;2023-06-19T05:03:37;20.90;89.90
3330;DHT22;1677;49.576;10.990;2023-06-19T05:06:03;20.90;90.10
3330;DHT22;1677;49.576;10.990;2023-06-19T05:08:28;20.90;90.20
3330;DHT22;1677;49.576;10.990;2023-06-19T05:10:54;20.90;89.70
3330;DHT22;1677;49.576;10.990;2023-06-19T05:13:20;20.90;89.90
3330;DHT22;1677;49.576;10.990;2023-06-19T05:15:45;20.90;90.30
3330;DHT22;1677;49.576;10.990;2023-06-19T05:18:11;21.00;90.60
3330;DHT22;1677;49.576;10.990;2023-06-19T05:20:36;21.20;90.50
3330;DHT22;1677;49.576;10.990;2023-06-19T05:23:02;21.20;90.60
3330;DHT22;1677;49.576;10.990;2023-06-19T05:25:27;21.20;90.70
3330;DHT22;1677;49.576;10.990;2023-06-19T05:27:53;21.30;91.20
3330;DHT22;1677;49.576;10.990;2023-06-19T05:30:18;21.50;90.40
3330;DHT22;1677;49.576;10.990;2023-06-19T05:32:44;21.70;90.30
3330;DHT22;1677;49.576;10.990;2023-06-19T05:35:09;21.80;90.40
3330;DHT22;1677;49.576;10.990;2023-06-19T05:37:35;21.80;90.90
3330;DHT22;1677;49.576;10.990;2023-06-19T05:40:00;21.90;90.70
3330;DHT22;1677;49.576;10.990;2023-06-19T05:42:26;22.00;91.20
3330;DHT22;1677;49.576;10.990;2023-06-19T05:44:51;22.10;90.40
3330;DHT22;1677;49.576;10.990;2023-06-19T05:47:16;22.10;91.60
3330;DHT22;1677;49.576;10.990;2023-06-19T05:49:45;22.20;90.60
3330;DHT22;1677;49.576;10.990;2023-06-19T05:52:11;22.10;90.40
3330;DHT22;1677;49.576;10.990;2023-06-19T05:54:36;22.20;90.70
3330;DHT22;1677;49.576;10.990;2023-06-19T05:57:02;22.20;91.20
3330;DHT22;1677;49.576;10.990;2023-06-19T05:59:27;22.40;91.10
3330;DHT22;1677;49.576;10.990;2023-06-19T06:01:52;22.60;91.10
3330;DHT22;1677;49.576;10.990;2023-06-19T06:04:18;22.70;90.60
3330;DHT22;1677;49.576;10.990;2023-06-19T06:06:46;22.90;90.40
3330;DHT22;1677;49.576;10.990;2023-06-19T06:09:12;23.00;90.40
3330;DHT22;1677;49.576;10.990;2023-06-19T06:11:38;23.30;90.90
3330;DHT22;1677;49.576;10.990;2023-06-19T06:14:04;23.60;90.40
3330;DHT22;1677;49.576;10.990;2023-06-19T06:16:29;24.00;91.50
3330;DHT22;1677;49.576;10.990;2023-06-19T06:18:54;24.40;88.40
3330;DHT22;1677;49.576;10.990;2023-06-19T06:21:20;24.70;88.20
3330;DHT22;1677;49.576;10.990;2023-06-19T06:23:45;24.90;88.20
3330;DHT22;1677;49.576;10.990;2023-06-19T06:26:13;24.90;89.90
3330;DHT22;1677;49.576;10.990;2023-06-19T06:28:39;24.80;90.80
3330;DHT22;1677;49.576;10.990;2023-06-19T06:31:04;24.60;90.50
3330;DHT22;1677;49.576;10.990;2023-06-19T06:33:30;24.50;90.30
3330;DHT22;1677;49.576;10.990;2023-06-19T06:35:57;24.40;91.10
3330;DHT22;1677;49.576;10.990;2023-06-19T06:38:22;24.30;91.90
3330;DHT22;1677;49.576;10.990;2023-06-19T06:40:48;24.10;92.40
3330;DHT22;1677;49.576;10.990;2023-06-19T06:43:14;24.00;93.00
3330;DHT22;1677;49.576;10.990;2023-06-19T06:45:39;24.00;92.70
3330;DHT22;1677;49.576;10.990;2023-06-19T06:48:07;24.00;93.00
3330;DHT22;1677;49.576;10.990;2023-06-19T06:50:32;24.10;92.90
3330;DHT22;1677;49.576;10.990;2023-06-19T06:52:58;24.20;93.50
3330;DHT22;1677;49.576;10.990;2023-06-19T06:55:23;24.20;93.30
3330;DHT22;1677;49.576;10.990;2023-06-19T06:57:49;24.20;93.50
3330;DHT22;1677;49.576;10.990;2023-06-19T07:00:15;24.30;93.80
3330;DHT22;1677;49.576;10.990;2023-06-19T07:02:40;24.30;94.30
3330;DHT22;1677;49.576;10.990;2023-06-19T07:05:09;24.50;93.50
3330;DHT22;1677;49.576;10.990;2023-06-19T07:07:38;24.60;94.00
3330;DHT22;1677;49.576;10.990;2023-06-19T07:10:03;25.00;93.10
3330;DHT22;1677;49.576;10.990;2023-06-19T07:12:29;25.30;92.70
3330;DHT22;1677;49.576;10.990;2023-06-19T07:14:54;25.60;91.70
3330;DHT22;1677;49.576;10.990;2023-06-19T07:17:20;25.80;91.10
3330;DHT22;1677;49.576;10.990;2023-06-19T07:19:45;26.00;90.90
3330;DHT22;1677;49.576;10.990;2023-06-19T07:22:11;26.10;91.00
3330;DHT22;1677;49.576;10.990;2023-06-19T07:24:36;26.00;91.50
3330;DHT22;1677;49.576;10.990;2023-06-19T07:27:02;26.00;91.20
3330;DHT22;1677;49.576;10.990;2023-06-19T07:29:27;25.90;91.20
3330;DHT22;1677;49.576;10.990;2023-06-19T07:31:53;25.80;91.50
3330;DHT22;1677;49.576;10.990;2023-06-19T07:34:18;25.90;91.30
3330;DHT22;1677;49.576;10.990;2023-06-19T07:36:44;26.20;91.30
3330;DHT22;1677;49.576;10.990;2023-06-19T07:39:09;26.40;89.20
3330;DHT22;1677;49.576;10.990;2023-06-19T07:41:36;26.70;88.80
3330;DHT22;1677;49.576;10.990;2023-06-19T07:44:01;26.90;87.80
3330;DHT22;1677;49.576;10.990;2023-06-19T07:46:26;27.30;87.20
3330;DHT22;1677;49.576;10.990;2023-06-19T07:48:52;27.30;85.30
3330;DHT22;1677;49.576;10.990;2023-06-19T07:51:18;27.00;85.30
3330;DHT22;1677;49.576;10.990;2023-06-19T07:53:43;26.90;87.60
3330;DHT22;1677;49.576;10.990;2023-06-19T07:56:09;26.60;88.30
3330;DHT22;1677;49.576;10.990;2023-06-19T07:58:34;26.50;88.00
3330;DHT22;1677;49.576;10.990;2023-06-19T08:01:00;26.40;89.00
3330;DHT22;1677;49.576;10.990;2023-06-19T08:03:26;26.40;89.40
3330;DHT22;1677;49.576;10.990;2023-06-19T08:05:52;26.30;90.20
3330;DHT22;1677;49.576;10.990;2023-06-19T08:08:18;26.40;89.70
3330;DHT22;1677;49.576;10.990;2023-06-19T08:10:43;26.40;90.30
3330;DHT22;1677;49.576;10.990;2023-06-19T08:13:09;26.50;89.40
3330;DHT22;1677;49.576;10.990;2023-06-19T08:15:36;26.70;90.30
3330;DHT22;1677;49.576;10.990;2023-06-19T08:18:02;26.90;89.20
3330;DHT22;1677;49.576;10.990;2023-06-19T08:20:27;27.30;88.90
3330;DHT22;1677;49.576;10.990;2023-06-19T08:22:53;27.60;87.40
3330;DHT22;1677;49.576;10.990;2023-06-19T08:25:18;28.10;87.50
3330;DHT22;1677;49.576;10.990;2023-06-19T08:27:44;28.50;86.20
3330;DHT22;1677;49.576;10.990;2023-06-19T08:30:10;28.80;84.60
3330;DHT22;1677;49.576;10.990;2023-06-19T08:32:36;28.90;82.70
3330;DHT22;1677;49.576;10.990;2023-06-19T08:35:02;29.10;80.70
3330;DHT22;1677;49.576;10.990;2023-06-19T08:37:28;29.00;80.10
3330;DHT22;1677;49.576;10.990;2023-06-19T08:39:54;28.50;80.10
3330;DHT22;1677;49.576;10.990;2023-06-19T08:42:21;27.90;81.20
3330;DHT22;1677;49.576;10.990;2023-06-19T08:44:48;27.80;83.10
3330;DHT22;1677;49.576;10.990;2023-06-19T08:47:13;27.90;84.10
3330;DHT22;1677;49.576;10.990;2023-06-19T08:49:39;27.90;83.40
3330;DHT22;1677;49.576;10.990;2023-06-19T08:52:04;28.00;83.90
3330;DHT22;1677;49.576;10.990;2023-06-19T08:54:30;27.70;82.00
3330;DHT22;1677;49.576;10.990;2023-06-19T08:56:59;27.30;83.60
3330;DHT22;1677;49.576;10.990;2023-06-19T08:59:25;27.40;84.00
3330;DHT22;1677;49.576;10.990;2023-06-19T09:01:51;27.30;85.00
3330;DHT22;1677;49.576;10.990;2023-06-19T09:04:18;27.20;85.20
3330;DHT22;1677;49.576;10.990;2023-06-19T09:06:50;26.60;87.10
3330;DHT22;1677;49.576;10.990;2023-06-19T09:09:16;26.40;87.90
3330;DHT22;1677;49.576;10.990;2023-06-19T09:11:42;26.70;87.60
3330;DHT22;1677;49.576;10.990;2023-06-19T09:14:11;26.90;87.80
3330;DHT22;1677;49.576;10.990;2023-06-19T09:16:37;26.80;87.00
3330;DHT22;1677;49.576;10.990;2023-06-19T09:19:03;26.80;88.10
3330;DHT22;1677;49.576;10.990;2023-06-19T09:21:28;27.00;87.70
3330;DHT22;1677;49.576;10.990;2023-06-19T09:23:54;26.90;88.20
3330;DHT22;1677;49.576;10.990;2023-06-19T09:26:19;27.10;89.70
3330;DHT22;1677;49.576;10.990;2023-06-19T09:28:45;27.20;87.70
3330;DHT22;1677;49.576;10.990;2023-06-19T09:31:11;27.20;88.20
3330;DHT22;1677;49.576;10.990;2023-06-19T09:33:38;27.30;87.00
3330;DHT22;1677;49.576;10.990;2023-06-19T09:36:04;27.60;87.90
3330;DHT22;1677;49.576;10.990;2023-06-19T09:38:35;27.70;87.40
3330;DHT22;1677;49.576;10.990;2023-06-19T09:41:02;28.00;85.80
3330;DHT22;1677;49.576;10.990;2023-06-19T09:45:59;28.20;83.70
3330;DHT22;1677;49.576;10.990;2023-06-19T09:48:27;28.40;85.20
3330;DHT22;1677;49.576;10.990;2023-06-19T09:50:54;28.60;85.10
3330;DHT22;1677;49.576;10.990;2023-06-19T09:53:20;28.70;81.20
3330;DHT22;1677;49.576;10.990;2023-06-19T09:55:49;28.70;82.70
3330;DHT22;1677;49.576;10.990;2023-06-19T09:58:21;28.90;82.70
3330;DHT22;1677;49.576;10.990;2023-06-19T10:00:46;29.10;81.10
3330;DHT22;1677;49.576;10.990;2023-06-19T10:03:12;29.20;81.40
3330;DHT22;1677;49.576;10.990;2023-06-19T10:05:38;29.50;82.70
3330;DHT22;1677;49.576;10.990;2023-06-19T10:08:04;29.80;78.20
3330;DHT22;1677;49.576;10.990;2023-06-19T10:10:31;30.50;77.00
3330;DHT22;1677;49.576;10.990;2023-06-19T10:12:59;31.00;76.30
3330;DHT22;1677;49.576;10.990;2023-06-19T10:15:28;31.60;72.70
3330;DHT22;1677;49.576;10.990;2023-06-19T10:18:04;31.70;72.40
3330;DHT22;1677;49.576;10.990;2023-06-19T10:20:30;31.90;69.30
3330;DHT22;1677;49.576;10.990;2023-06-19T10:23:03;32.00;70.20
3330;DHT22;1677;49.576;10.990;2023-06-19T10:25:30;31.60;66.50
3330;DHT22;1677;49.576;10.990;2023-06-19T10:27:57;31.20;67.50
3330;DHT22;1677;49.576;10.990;2023-06-19T10:30:22;31.40;68.10
3330;DHT22;1677;49.576;10.990;2023-06-19T10:32:48;31.90;71.50
3330;DHT22;1677;49.576;10.990;2023-06-19T10:35:13;32.40;67.40
3330;DHT22;1677;49.576;10.990;2023-06-19T10:37:39;32.70;68.30
3330;DHT22;1677;49.576;10.990;2023-06-19T10:40:05;32.90;64.80
3330;DHT22;1677;49.576;10.990;2023-06-19T10:42:34;33.30;66.40
3330;DHT22;1677;49.576;10.990;2023-06-19T10:45:01;32.80;65.30
3330;DHT22;1677;49.576;10.990;2023-06-19T10:47:27;33.10;64.90
3330;DHT22;1677;49.576;10.990;2023-06-19T10:49:54;33.50;63.10
3330;DHT22;1677;49.576;10.990;2023-06-19T10:52:19;34.00;61.50
3330;DHT22;1677;49.576;10.990;2023-06-19T10:54:45;34.10;60.40
3330;DHT22;1677;49.576;10.990;2023-06-19T10:57:11;34.40;59.90
3330;DHT22;1677;49.576;10.990;2023-06-19T10:59:39;34.10;56.00
3330;DHT22;1677;49.576;10.990;2023-06-19T11:02:05;33.80;57.80
3330;DHT22;1677;49.576;10.990;2023-06-19T11:04:31;33.80;59.90
3330;DHT22;1677;49.576;10.990;2023-06-19T11:06:56;33.80;61.90
3330;DHT22;1677;49.576;10.990;2023-06-19T11:09:22;33.90;59.20
3330;DHT22;1677;49.576;10.990;2023-06-19T11:11:47;33.90;59.90
3330;DHT22;1677;49.576;10.990;2023-06-19T11:14:16;33.70;61.60
3330;DHT22;1677;49.576;10.990;2023-06-19T11:16:46;34.30;58.40
3330;DHT22;1677;49.576;10.990;2023-06-19T11:19:18;34.40;55.40
3330;DHT22;1677;49.576;10.990;2023-06-19T11:21:47;34.00;57.30
3330;DHT22;1677;49.576;10.990;2023-06-19T11:24:14;34.50;57.20
3330;DHT22;1677;49.576;10.990;2023-06-19T11:26:47;34.60;55.50
3330;DHT22;1677;49.576;10.990;2023-06-19T11:29:19;34.60;57.50
3330;DHT22;1677;49.576;10.990;2023-06-19T11:31:46;34.70;57.20
3330;DHT22;1677;49.576;10.990;2023-06-19T11:34:12;35.20;55.70
3330;DHT22;1677;49.576;10.990;2023-06-19T11:36:38;35.70;54.10
3330;DHT22;1677;49.576;10.990;2023-06-19T11:39:04;35.70;53.10
3330;DHT22;1677;49.576;10.990;2023-06-19T11:41:32;35.50;50.60
3330;DHT22;1677;49.576;10.990;2023-06-19T11:43:58;35.50;52.70
3330;DHT22;1677;49.576;10.990;2023-06-19T11:46:27;35.30;51.20
3330;DHT22;1677;49.576;10.990;2023-06-19T11:48:53;35.40;52.10
3330;DHT22;1677;49.576;10.990;2023-06-19T11:51:18;35.30;50.90
3330;DHT22;1677;49.576;10.990;2023-06-19T11:53:44;35.60;47.80
3330;DHT22;1677;49.576;10.990;2023-06-19T11:56:09;35.80;48.50
3330;DHT22;1677;49.576;10.990;2023-06-19T11:58:35;37.10;47.30
3330;DHT22;1677;49.576;10.990;2023-06-19T12:01:00;37.20;44.30
3330;DHT22;1677;49.576;10.990;2023-06-19T12:03:26;36.70;44.60
3330;DHT22;1677;49.576;10.990;2023-06-19T12:05:52;36.10;45.80
3330;DHT22;1677;49.576;10.990;2023-06-19T12:08:17;36.00;45.70
3330;DHT22;1677;49.576;10.990;2023-06-19T12:10:43;35.00;46.80
3330;DHT22;1677;49.576;10.990;2023-06-19T12:13:08;34.70;49.10
3330;DHT22;1677;49.576;10.990;2023-06-19T12:15:34;34.30;49.90
3330;DHT22;1677;49.576;10.990;2023-06-19T12:17:59;34.10;50.30
3330;DHT22;1677;49.576;10.990;2023-06-19T12:20:25;33.90;51.60
3330;DHT22;1677;49.576;10.990;2023-06-19T12:22:50;33.80;52.00
3330;DHT22;1677;49.576;10.990;2023-06-19T12:25:16;34.10;52.60
3330;DHT22;1677;49.576;10.990;2023-06-19T12:27:41;34.50;51.40
3330;DHT22;1677;49.576;10.990;2023-06-19T12:30:07;35.00;52.70
3330;DHT22;1677;49.576;10.990;2023-06-19T12:32:33;34.70;51.00
3330;DHT22;1677;49.576;10.990;2023-06-19T12:34:58;34.80;50.50
3330;DHT22;1677;49.576;10.990;2023-06-19T12:37:24;34.30;49.60
3330;DHT22;1677;49.576;10.990;2023-06-19T12:39:50;33.70;50.70
3330;DHT22;1677;49.576;10.990;2023-06-19T12:42:15;33.30;52.00
3330;DHT22;1677;49.576;10.990;2023-06-19T12:44:41;33.30;52.40
3330;DHT22;1677;49.576;10.990;2023-06-19T12:47:07;32.80;52.20
3330;DHT22;1677;49.576;10.990;2023-06-19T12:49:33;33.00;53.80
3330;DHT22;1677;49.576;10.990;2023-06-19T12:51:59;33.40;53.80
3330;DHT22;1677;49.576;10.990;2023-06-19T12:54:25;34.00;53.90
3330;DHT22;1677;49.576;10.990;2023-06-19T12:56:50;34.50;54.30
3330;DHT22;1677;49.576;10.990;2023-06-19T12:59:16;33.90;49.30
3330;DHT22;1677;49.576;10.990;2023-06-19T13:01:42;33.50;51.50
3330;DHT22;1677;49.576;10.990;2023-06-19T13:04:07;33.70;53.10
3330;DHT22;1677;49.576;10.990;2023-06-19T13:06:33;33.80;51.80
3330;DHT22;1677;49.576;10.990;2023-06-19T13:08:58;33.80;53.10
3330;DHT22;1677;49.576;10.990;2023-06-19T13:11:24;33.60;51.60
3330;DHT22;1677;49.576;10.990;2023-06-19T13:13:49;33.30;50.30
3330;DHT22;1677;49.576;10.990;2023-06-19T13:16:15;33.50;50.10
3330;DHT22;1677;49.576;10.990;2023-06-19T13:18:44;33.80;49.50
3330;DHT22;1677;49.576;10.990;2023-06-19T13:21:11;33.60;48.50
3330;DHT22;1677;49.576;10.990;2023-06-19T13:23:36;33.60;49.30
3330;DHT22;1677;49.576;10.990;2023-06-19T13:26:02;33.00;49.10
3330;DHT22;1677;49.576;10.990;2023-06-19T13:28:27;32.70;49.60
3330;DHT22;1677;49.576;10.990;2023-06-19T13:30:53;32.50;49.40
3330;DHT22;1677;49.576;10.990;2023-06-19T13:33:18;32.40;51.80
3330;DHT22;1677;49.576;10.990;2023-06-19T13:35:44;32.20;52.50
3330;DHT22;1677;49.576;10.990;2023-06-19T13:38:09;31.40;51.30
3330;DHT22;1677;49.576;10.990;2023-06-19T13:40:36;31.40;52.00
3330;DHT22;1677;49.576;10.990;2023-06-19T13:43:01;31.40;53.50
3330;DHT22;1677;49.576;10.990;2023-06-19T13:45:29;31.00;54.90
3330;DHT22;1677;49.576;10.990;2023-06-19T13:47:54;31.10;55.20
3330;DHT22;1677;49.576;10.990;2023-06-19T13:50:19;31.30;54.10
3330;DHT22;1677;49.576;10.990;2023-06-19T13:52:45;31.70;53.20
3330;DHT22;1677;49.576;10.990;2023-06-19T13:55:12;32.00;55.60
3330;DHT22;1677;49.576;10.990;2023-06-19T13:57:38;32.10;54.90
3330;DHT22;1677;49.576;10.990;2023-06-19T14:00:07;32.50;55.10
3330;DHT22;1677;49.576;10.990;2023-06-19T14:02:33;32.70;54.40
3330;DHT22;1677;49.576;10.990;2023-06-19T14:04:58;32.80;53.80
3330;DHT22;1677;49.576;10.990;2023-06-19T14:07:25;32.80;55.00
3330;DHT22;1677;49.576;10.990;2023-06-19T14:09:52;32.80;52.60
3330;DHT22;1677;49.576;10.990;2023-06-19T14:12:18;32.40;54.20
3330;DHT22;1677;49.576;10.990;2023-06-19T14:14:44;32.20;54.30
3330;DHT22;1677;49.576;10.990;2023-06-19T14:17:09;31.90;56.00
3330;DHT22;1677;49.576;10.990;2023-06-19T14:19:35;31.60;54.30
3330;DHT22;1677;49.576;10.990;2023-06-19T14:22:00;31.30;54.80
3330;DHT22;1677;49.576;10.990;2023-06-19T14:24:27;31.20;56.40
3330;DHT22;1677;49.576;10.990;2023-06-19T14:26:52;31.10;58.00
3330;DHT22;1677;49.576;10.990;2023-06-19T14:29:18;31.00;58.70
3330;DHT22;1677;49.576;10.990;2023-06-19T14:31:44;31.00;60.10
3330;DHT22;1677;49.576;10.990;2023-06-19T14:34:09;30.80;62.40
3330;DHT22;1677;49.576;10.990;2023-06-19T14:36:36;30.80;62.20
3330;DHT22;1677;49.576;10.990;2023-06-19T14:39:02;30.60;64.10
3330;DHT22;1677;49.576;10.990;2023-06-19T14:41:29;30.50;63.30
3330;DHT22;1677;49.576;10.990;2023-06-19T14:43:54;30.50;65.50
3330;DHT22;1677;49.576;10.990;2023-06-19T14:46:20;30.50;63.70
3330;DHT22;1677;49.576;10.990;2023-06-19T14:48:45;30.50;66.20
3330;DHT22;1677;49.576;10.990;2023-06-19T14:51:11;30.50;65.10
3330;DHT22;1677;49.576;10.990;2023-06-19T14:53:37;30.60;64.40
3330;DHT22;1677;49.576;10.990;2023-06-19T14:56:02;30.70;63.60
3330;DHT22;1677;49.576;10.990;2023-06-19T14:58:28;30.80;62.60
3330;DHT22;1677;49.576;10.990;2023-06-19T15:00:54;31.00;62.70
3330;DHT22;1677;49.576;10.990;2023-06-19T15:03:19;31.10;63.80
3330;DHT22;1677;49.576;10.990;2023-06-19T15:05:45;31.20;64.00
3330;DHT22;1677;49.576;10.990;2023-06-19T15:08:10;31.30;63.70
3330;DHT22;1677;49.576;10.990;2023-06-19T15:10:36;31.30;66.50
3330;DHT22;1677;49.576;10.990;2023-06-19T15:13:02;31.40;64.00
3330;DHT22;1677;49.576;10.990;2023-06-19T15:15:27;31.50;66.80
3330;DHT22;1677;49.576;10.990;2023-06-19T15:17:53;31.50;63.00
3330;DHT22;1677;49.576;10.990;2023-06-19T15:20:18;31.40;64.20
3330;DHT22;1677;49.576;10.990;2023-06-19T15:22:46;31.40;60.80
3330;DHT22;1677;49.576;10.990;2023-06-19T15:25:11;31.30;63.70
3330;DHT22;1677;49.576;10.990;2023-06-19T15:27:37;31.10;61.80
3330;DHT22;1677;49.576;10.990;2023-06-19T15:30:03;31.00;67.40
3330;DHT22;1677;49.576;10.990;2023-06-19T15:32:29;30.20;64.40
3330;DHT22;1677;49.576;10.990;2023-06-19T15:34:54;29.20;66.00
3330;DHT22;1677;49.576;10.990;2023-06-19T15:37:20;28.70;69.20
3330;DHT22;1677;49.576;10.990;2023-06-19T15:39:45;28.40;71.70